Easton, Minnesota
Current Conditions -  °F | °C
As of 10:54 AM on Tuesday 27 Jan 2015 (Local Time) from KACQ Reporting Station
Overcast Overcast  
Wind Chill: 26°   Ceiling: 1700
Heat Index: 32°   Visibility: 10mi
Dew Point: 28°   Wind: 7mph
Humidity: 87%   Direction: 90°E
Pressure: 30.17"   Gusts: NA
Location:  43.77°N, 93.9°W
Report Text: KACQ 271654Z AUTO 09006KT 10SM OVC017 00/M02 A3017 RMK AO2
Loading
Personal Weather Stations






























Interactive Weather Map New forecast layout! Learn more

10-Day Weather Forecast

Advertisements
Track Severe Weather on mobile